createdAt,value
2022-12-03T00:00:07.437Z,416.00
2022-12-03T00:01:04.291Z,414.00
2022-12-03T00:02:03.339Z,414.00
2022-12-03T00:03:03.413Z,420.00
2022-12-03T00:04:03.358Z,418.00
2022-12-03T00:05:03.208Z,419.00
2022-12-03T00:06:03.200Z,421.00
2022-12-03T00:07:03.212Z,421.00
2022-12-03T00:08:03.278Z,421.00
2022-12-03T00:09:03.160Z,421.00
2022-12-03T00:10:03.150Z,420.00
2022-12-03T00:11:03.165Z,421.00
2022-12-03T00:12:03.129Z,419.00
2022-12-03T00:13:03.130Z,421.00
2022-12-03T00:14:03.101Z,422.00
2022-12-03T00:15:03.088Z,421.00
2022-12-03T00:16:03.146Z,422.00
2022-12-03T00:17:03.065Z,419.00
2022-12-03T00:18:03.050Z,420.00
2022-12-03T00:19:03.059Z,423.00
2022-12-03T00:20:03.028Z,421.00
2022-12-03T00:21:03.010Z,421.00
2022-12-03T00:22:02.998Z,420.00
2022-12-03T00:23:02.980Z,420.00
2022-12-03T00:24:02.971Z,421.00
2022-12-03T00:25:02.978Z,421.00
2022-12-03T00:26:02.947Z,419.00
2022-12-03T00:27:02.929Z,421.00
2022-12-03T00:28:02.922Z,422.00
2022-12-03T00:29:02.907Z,418.00
2022-12-03T00:30:02.888Z,420.00
2022-12-03T00:31:02.933Z,419.00
2022-12-03T00:32:02.872Z,420.00
2022-12-03T00:33:02.854Z,421.00
2022-12-03T00:34:02.845Z,423.00
2022-12-03T00:35:02.826Z,422.00
2022-12-03T00:36:02.817Z,421.00
2022-12-03T00:37:02.817Z,420.00
2022-12-03T00:38:02.797Z,419.00
2022-12-03T00:39:02.767Z,420.00
2022-12-03T00:40:02.805Z,419.00
2022-12-03T00:41:02.746Z,418.00
2022-12-03T00:42:02.748Z,419.00
2022-12-03T00:43:02.737Z,420.00
2022-12-03T00:44:02.727Z,420.00
2022-12-03T00:45:02.696Z,421.00
2022-12-03T00:46:02.756Z,420.00
2022-12-03T00:47:02.704Z,419.00
2022-12-03T00:48:02.656Z,422.00
2022-12-03T00:49:02.660Z,423.00
2022-12-03T00:50:02.644Z,423.00
2022-12-03T00:51:02.615Z,423.00
2022-12-03T00:52:02.605Z,422.00
2022-12-03T00:53:02.601Z,423.00
2022-12-03T00:54:02.587Z,423.00
2022-12-03T00:55:02.585Z,422.00
2022-12-03T00:56:02.562Z,424.00
2022-12-03T00:57:02.547Z,423.00
2022-12-03T00:58:02.536Z,419.00
2022-12-03T00:59:02.514Z,422.00
2022-12-03T01:00:02.506Z,421.00
2022-12-03T01:01:02.516Z,418.00
2022-12-03T01:02:02.552Z,418.00
2022-12-03T01:03:02.464Z,418.00
2022-12-03T01:04:02.455Z,418.00
2022-12-03T01:05:02.491Z,418.00
2022-12-03T01:06:02.434Z,418.00
2022-12-03T01:07:02.442Z,418.00
2022-12-03T01:08:02.462Z,418.00
2022-12-03T01:09:02.391Z,417.00
2022-12-03T01:10:02.384Z,418.00
2022-12-03T01:11:02.363Z,419.00
2022-12-03T01:12:02.355Z,420.00
2022-12-03T01:13:02.355Z,422.00
2022-12-03T01:14:02.332Z,420.00
2022-12-03T01:15:02.316Z,421.00
2022-12-03T01:16:02.354Z,420.00
2022-12-03T01:17:02.286Z,420.00
2022-12-03T01:18:02.280Z,419.00
2022-12-03T01:19:02.273Z,416.00
2022-12-03T01:20:02.263Z,419.00
2022-12-03T01:21:02.246Z,422.00
2022-12-03T01:22:02.212Z,420.00
2022-12-03T01:23:02.211Z,421.00
2022-12-03T01:24:02.192Z,420.00
2022-12-03T01:25:02.202Z,416.00
2022-12-03T01:26:02.168Z,416.00
2022-12-03T01:27:02.152Z,418.00
2022-12-03T01:28:02.145Z,417.00
2022-12-03T01:29:02.131Z,420.00
2022-12-03T01:30:02.121Z,418.00
2022-12-03T01:31:02.194Z,419.00
2022-12-03T01:32:02.090Z,419.00
2022-12-03T01:33:02.080Z,423.00
2022-12-03T01:34:02.072Z,421.00
2022-12-03T01:35:02.060Z,421.00
2022-12-03T01:36:02.040Z,420.00
2022-12-03T01:37:02.041Z,425.00
2022-12-03T01:38:02.022Z,418.00
2022-12-03T01:39:02.001Z,420.00
2022-12-03T01:40:01.989Z,420.00
2022-12-03T01:41:04.845Z,418.00
2022-12-03T01:42:02.981Z,418.00
2022-12-03T01:43:01.959Z,417.00
2022-12-03T01:44:01.930Z,416.00
2022-12-03T01:45:01.929Z,417.00
2022-12-03T01:46:01.911Z,418.00
2022-12-03T01:47:01.974Z,415.00
2022-12-03T01:48:01.899Z,418.00
2022-12-03T01:49:01.878Z,415.00
2022-12-03T01:50:01.859Z,416.00
2022-12-03T01:51:01.859Z,416.00
2022-12-03T01:52:01.828Z,418.00
2022-12-03T01:53:01.833Z,416.00
2022-12-03T01:54:01.819Z,416.00
2022-12-03T01:55:01.812Z,414.00
2022-12-03T01:56:01.789Z,404.00
2022-12-03T01:57:01.776Z,420.00
2022-12-03T01:58:01.753Z,416.00
2022-12-03T01:59:01.749Z,420.00
2022-12-03T02:00:01.752Z,419.00
2022-12-03T02:01:01.716Z,421.00
2022-12-03T02:02:01.739Z,421.00
2022-12-03T02:03:01.703Z,419.00
2022-12-03T02:04:01.764Z,417.00
2022-12-03T02:05:01.670Z,420.00
2022-12-03T02:06:01.667Z,424.00
2022-12-03T02:07:01.646Z,420.00
2022-12-03T02:08:01.756Z,417.00
2022-12-03T02:09:01.616Z,419.00
2022-12-03T02:10:01.597Z,421.00
2022-12-03T02:11:01.589Z,423.00
2022-12-03T02:12:01.585Z,420.00
2022-12-03T02:13:01.565Z,421.00
2022-12-03T02:14:01.548Z,421.00
2022-12-03T02:15:01.545Z,421.00
2022-12-03T02:16:01.592Z,416.00
2022-12-03T02:17:01.514Z,417.00
2022-12-03T02:18:01.514Z,418.00
2022-12-03T02:19:01.485Z,421.00
2022-12-03T02:20:01.469Z,421.00
2022-12-03T02:21:01.473Z,417.00
2022-12-03T02:22:01.444Z,422.00
2022-12-03T02:23:01.437Z,416.00
2022-12-03T02:24:01.437Z,419.00
2022-12-03T02:25:01.411Z,419.00
2022-12-03T02:26:01.396Z,421.00
2022-12-03T02:27:01.392Z,422.00
2022-12-03T02:28:01.364Z,423.00
2022-12-03T02:29:01.354Z,422.00
2022-12-03T02:30:01.363Z,421.00
2022-12-03T02:31:01.384Z,411.00
2022-12-03T02:32:01.316Z,415.00
2022-12-03T02:33:01.304Z,415.00
2022-12-03T02:34:01.283Z,416.00
2022-12-03T02:35:01.273Z,418.00
2022-12-03T02:36:03.821Z,422.00
2022-12-03T02:37:01.263Z,419.00
2022-12-03T02:38:01.232Z,418.00
2022-12-03T02:39:01.223Z,416.00
2022-12-03T02:40:01.203Z,422.00
2022-12-03T02:41:01.207Z,419.00
2022-12-03T02:42:01.193Z,417.00
2022-12-03T02:43:02.181Z,415.00
2022-12-03T02:44:01.152Z,423.00
2022-12-03T02:45:05.114Z,421.00
2022-12-03T02:46:01.134Z,422.00
2022-12-03T02:47:01.202Z,415.00
2022-12-03T02:48:01.131Z,420.00
2022-12-03T02:49:01.102Z,414.00
2022-12-03T02:50:01.086Z,420.00
2022-12-03T02:51:01.071Z,416.00
2022-12-03T02:52:01.051Z,413.00
2022-12-03T02:53:01.052Z,422.00
2022-12-03T02:54:01.041Z,421.00
2022-12-03T02:55:01.019Z,419.00
2022-12-03T02:56:01.000Z,418.00
2022-12-03T02:57:00.980Z,422.00
2022-12-03T02:58:00.979Z,419.00
2022-12-03T02:59:00.963Z,415.00
2022-12-03T03:00:00.980Z,416.00
2022-12-03T03:01:01.010Z,412.00
2022-12-03T03:02:00.945Z,411.00
2022-12-03T03:03:00.918Z,411.00
2022-12-03T03:04:00.902Z,421.00
2022-12-03T03:05:00.890Z,419.00
2022-12-03T03:06:00.903Z,417.00
2022-12-03T03:07:00.859Z,417.00
2022-12-03T03:08:00.967Z,416.00
2022-12-03T03:09:00.839Z,421.00
2022-12-03T03:10:00.821Z,420.00
2022-12-03T03:11:00.810Z,418.00
2022-12-03T03:12:00.809Z,423.00
2022-12-03T03:13:00.781Z,426.00
2022-12-03T03:14:00.765Z,421.00
2022-12-03T03:15:00.757Z,425.00
2022-12-03T03:16:00.823Z,422.00
2022-12-03T03:17:01.739Z,418.00
2022-12-03T03:18:00.729Z,417.00
2022-12-03T03:19:00.707Z,428.00
2022-12-03T03:20:00.694Z,424.00
2022-12-03T03:21:00.679Z,424.00
2022-12-03T03:22:00.658Z,422.00
2022-12-03T03:23:00.657Z,427.00
2022-12-03T03:24:00.678Z,424.00
2022-12-03T03:25:00.626Z,420.00
2022-12-03T03:26:00.615Z,423.00
2022-12-03T03:27:00.607Z,419.00
2022-12-03T03:28:00.585Z,417.00
2022-12-03T03:29:00.576Z,412.00
2022-12-03T03:30:00.569Z,418.00
2022-12-03T03:31:00.549Z,419.00
2022-12-03T03:32:00.593Z,421.00
2022-12-03T03:33:00.527Z,419.00
2022-12-03T03:34:00.534Z,423.00
2022-12-03T03:35:00.496Z,419.00
2022-12-03T03:36:00.535Z,416.00
2022-12-03T03:37:00.483Z,413.00
2022-12-03T03:38:00.458Z,413.00
2022-12-03T03:39:00.445Z,415.00
2022-12-03T03:40:00.425Z,415.00
2022-12-03T03:41:00.427Z,418.00
2022-12-03T03:42:00.417Z,417.00
2022-12-03T03:43:00.397Z,415.00
2022-12-03T03:44:00.456Z,413.00
2022-12-03T03:45:00.369Z,416.00
2022-12-03T03:46:00.400Z,418.00
2022-12-03T03:47:00.346Z,415.00
2022-12-03T03:48:00.337Z,419.00
2022-12-03T03:49:00.316Z,414.00
2022-12-03T03:50:00.294Z,415.00
2022-12-03T03:51:00.286Z,413.00
2022-12-03T03:52:00.277Z,414.00
2022-12-03T03:53:00.262Z,411.00
2022-12-03T03:54:00.264Z,410.00
2022-12-03T03:55:00.252Z,411.00
2022-12-03T03:56:00.214Z,413.00
2022-12-03T03:57:00.204Z,415.00
2022-12-03T03:58:00.192Z,413.00
2022-12-03T03:59:00.184Z,414.00
2022-12-03T04:00:00.191Z,416.00
2022-12-03T04:01:00.327Z,413.00
2022-12-03T04:02:00.145Z,418.00
2022-12-03T04:03:00.133Z,409.00
2022-12-03T04:04:00.202Z,413.00
2022-12-03T04:05:00.112Z,425.00
2022-12-03T04:06:00.103Z,423.00
2022-12-03T04:07:00.111Z,420.00
2022-12-03T04:08:00.181Z,421.00
2022-12-03T04:09:00.052Z,424.00
2022-12-03T04:10:00.032Z,417.00
2022-12-03T04:11:00.029Z,423.00
2022-12-03T04:12:00.042Z,417.00
2022-12-03T04:13:00.003Z,414.00
2022-12-03T04:13:59.992Z,411.00
2022-12-03T04:14:59.972Z,415.00
2022-12-03T04:15:59.952Z,426.00
2022-12-03T04:16:59.993Z,414.00
2022-12-03T04:17:59.951Z,414.00
2022-12-03T04:18:59.929Z,414.00
2022-12-03T04:19:59.908Z,415.00
2022-12-03T04:20:59.901Z,417.00
2022-12-03T04:21:59.881Z,417.00
2022-12-03T04:22:59.870Z,417.00
2022-12-03T04:23:59.882Z,419.00
2022-12-03T04:24:59.850Z,418.00
2022-12-03T04:25:59.829Z,414.00
2022-12-03T04:26:59.831Z,417.00
2022-12-03T04:27:59.800Z,422.00
2022-12-03T04:28:59.792Z,431.00
2022-12-03T04:29:59.800Z,424.00
2022-12-03T04:30:59.808Z,413.00
2022-12-03T04:31:59.755Z,408.00
2022-12-03T04:32:59.748Z,416.00
2022-12-03T04:33:59.721Z,417.00
2022-12-03T04:34:59.719Z,416.00
2022-12-03T04:35:59.784Z,416.00
2022-12-03T04:36:59.689Z,418.00
2022-12-03T04:37:59.669Z,416.00
2022-12-03T04:38:59.670Z,413.00
2022-12-03T04:39:59.648Z,418.00
2022-12-03T04:40:59.639Z,417.00
2022-12-03T04:41:59.653Z,421.00
2022-12-03T04:42:59.622Z,416.00
2022-12-03T04:43:59.591Z,417.00
2022-12-03T04:44:59.590Z,410.00
2022-12-03T04:45:59.662Z,417.00
2022-12-03T04:46:59.558Z,416.00
2022-12-03T04:47:59.562Z,415.00
2022-12-03T04:48:59.542Z,415.00
2022-12-03T04:49:59.526Z,413.00
2022-12-03T04:50:59.511Z,415.00
2022-12-03T04:51:59.497Z,412.00
2022-12-03T04:52:59.488Z,408.00
2022-12-03T04:53:59.487Z,411.00
2022-12-03T04:54:59.458Z,410.00
2022-12-03T04:55:59.436Z,404.00
2022-12-03T04:56:59.437Z,408.00
2022-12-03T04:57:59.408Z,412.00
2022-12-03T04:58:59.407Z,418.00
2022-12-03T04:59:59.404Z,410.00
2022-12-03T05:00:59.421Z,418.00
2022-12-03T05:01:59.455Z,416.00
2022-12-03T05:02:59.417Z,417.00
2022-12-03T05:03:59.336Z,418.00
2022-12-03T05:04:59.325Z,419.00
2022-12-03T05:05:59.328Z,424.00
2022-12-03T05:06:59.314Z,409.00
2022-12-03T05:07:59.344Z,414.00
2022-12-03T05:08:59.276Z,417.00
2022-12-03T05:09:59.254Z,417.00
2022-12-03T05:10:59.246Z,417.00
2022-12-03T05:11:59.254Z,416.00
2022-12-03T05:12:59.239Z,409.00
2022-12-03T05:13:59.210Z,411.00
2022-12-03T05:14:59.194Z,412.00
2022-12-03T05:15:59.184Z,405.00
2022-12-03T05:16:59.282Z,409.00
2022-12-03T05:17:59.167Z,417.00
2022-12-03T05:18:59.144Z,411.00
2022-12-03T05:19:59.128Z,414.00
2022-12-03T05:20:59.137Z,412.00
2022-12-03T05:21:59.093Z,413.00
2022-12-03T05:22:59.093Z,409.00
2022-12-03T05:23:59.115Z,413.00
2022-12-03T05:24:59.065Z,414.00
2022-12-03T05:25:59.049Z,416.00
2022-12-03T05:26:59.043Z,416.00
2022-12-03T05:27:59.024Z,417.00
2022-12-03T05:28:59.020Z,412.00
2022-12-03T05:29:59.015Z,409.00
2022-12-03T05:30:59.022Z,409.00
2022-12-03T05:31:58.974Z,410.00
2022-12-03T05:32:58.964Z,408.00
2022-12-03T05:33:58.947Z,411.00
2022-12-03T05:34:58.943Z,410.00
2022-12-03T05:35:58.935Z,411.00
2022-12-03T05:36:58.912Z,412.00
2022-12-03T05:37:58.900Z,411.00
2022-12-03T05:38:58.893Z,412.00
2022-12-03T05:39:58.874Z,412.00
2022-12-03T05:40:58.851Z,414.00
2022-12-03T05:41:58.873Z,410.00
2022-12-03T05:42:58.835Z,413.00
2022-12-03T05:43:58.811Z,413.00
2022-12-03T05:44:58.802Z,408.00
2022-12-03T05:45:58.827Z,408.00
2022-12-03T05:46:58.782Z,412.00
2022-12-03T05:47:58.791Z,413.00
2022-12-03T05:48:58.755Z,415.00
2022-12-03T05:49:58.734Z,413.00
2022-12-03T05:50:58.731Z,407.00
2022-12-03T05:51:59.025Z,405.00
2022-12-03T05:52:58.703Z,406.00
2022-12-03T05:53:58.702Z,407.00
2022-12-03T05:54:58.671Z,402.00
2022-12-03T05:55:58.659Z,404.00
2022-12-03T05:56:58.649Z,409.00
2022-12-03T05:57:58.631Z,407.00
2022-12-03T05:58:58.620Z,409.00
2022-12-03T05:59:58.640Z,408.00
2022-12-03T06:00:58.600Z,414.00
2022-12-03T06:01:58.570Z,409.00
2022-12-03T06:02:58.655Z,409.00
2022-12-03T06:03:58.579Z,410.00
2022-12-03T06:04:58.549Z,414.00
2022-12-03T06:05:58.550Z,415.00
2022-12-03T06:06:58.519Z,416.00
2022-12-03T06:07:58.552Z,413.00
2022-12-03T06:08:58.497Z,417.00
2022-12-03T06:09:58.481Z,411.00
2022-12-03T06:10:58.470Z,414.00
2022-12-03T06:11:58.468Z,412.00
2022-12-03T06:12:58.439Z,409.00
2022-12-03T06:13:58.427Z,417.00
2022-12-03T06:14:58.409Z,420.00
2022-12-03T06:15:58.453Z,418.00
2022-12-03T06:16:58.397Z,410.00
2022-12-03T06:17:58.389Z,409.00
2022-12-03T06:18:58.369Z,406.00
2022-12-03T06:19:58.349Z,408.00
2022-12-03T06:20:58.339Z,411.00
2022-12-03T06:21:58.317Z,411.00
2022-12-03T06:22:58.319Z,412.00
2022-12-03T06:23:58.316Z,409.00
2022-12-03T06:25:03.369Z,412.00
2022-12-03T06:25:59.268Z,416.00
2022-12-03T06:26:58.258Z,413.00
2022-12-03T06:27:58.237Z,414.00
2022-12-03T06:28:58.228Z,410.00
2022-12-03T06:29:58.227Z,403.00
2022-12-03T06:30:58.261Z,412.00
2022-12-03T06:31:58.188Z,410.00
2022-12-03T06:32:58.176Z,409.00
2022-12-03T06:33:58.168Z,404.00
2022-12-03T06:34:58.156Z,404.00
2022-12-03T06:35:58.156Z,404.00
2022-12-03T06:36:58.127Z,405.00
2022-12-03T06:37:58.131Z,405.00
2022-12-03T06:38:58.106Z,405.00
2022-12-03T06:39:58.088Z,410.00
2022-12-03T06:40:58.077Z,410.00
2022-12-03T06:41:58.088Z,411.00
2022-12-03T06:42:58.045Z,411.00
2022-12-03T06:43:58.035Z,410.00
2022-12-03T06:44:58.030Z,414.00
2022-12-03T06:45:58.014Z,410.00
2022-12-03T06:46:58.083Z,408.00
2022-12-03T06:47:58.015Z,412.00
2022-12-03T06:48:57.974Z,411.00
2022-12-03T06:49:57.955Z,410.00
2022-12-03T06:50:57.959Z,414.00
2022-12-03T06:51:57.929Z,416.00
2022-12-03T06:52:57.924Z,413.00
2022-12-03T06:53:57.925Z,415.00
2022-12-03T06:54:57.902Z,415.00
2022-12-03T06:55:57.874Z,415.00
2022-12-03T06:56:57.874Z,418.00
2022-12-03T06:57:57.848Z,417.00
2022-12-03T06:58:57.843Z,422.00
2022-12-03T06:59:57.845Z,412.00
2022-12-03T07:00:57.813Z,423.00
2022-12-03T07:01:57.830Z,416.00
2022-12-03T07:02:57.833Z,421.00
2022-12-03T07:03:57.773Z,404.00
2022-12-03T07:04:58.172Z,422.00
2022-12-03T07:05:57.773Z,413.00
2022-12-03T07:06:57.741Z,413.00
2022-12-03T07:07:57.763Z,417.00
2022-12-03T07:08:57.717Z,419.00
2022-12-03T07:09:57.694Z,418.00
2022-12-03T07:10:57.690Z,414.00
2022-12-03T07:11:57.703Z,416.00
2022-12-03T07:12:57.653Z,425.00
2022-12-03T07:14:03.054Z,415.00
2022-12-03T07:14:58.639Z,400.00
2022-12-03T07:15:57.718Z,411.00
2022-12-03T07:16:57.603Z,408.00
2022-12-03T07:17:57.612Z,411.00
2022-12-03T07:18:57.584Z,410.00
2022-12-03T07:19:57.572Z,411.00
2022-12-03T07:20:57.550Z,414.00
2022-12-03T07:21:57.543Z,408.00
2022-12-03T07:22:57.520Z,405.00
2022-12-03T07:23:57.559Z,408.00
2022-12-03T07:24:57.498Z,412.00
2022-12-03T07:25:58.498Z,417.00
2022-12-03T07:26:57.474Z,414.00
2022-12-03T07:27:57.471Z,411.00
2022-12-03T07:28:57.449Z,412.00
2022-12-03T07:29:57.461Z,411.00
2022-12-03T07:30:57.441Z,410.00
2022-12-03T07:31:57.419Z,406.00
2022-12-03T07:32:57.391Z,412.00
2022-12-03T07:33:57.390Z,409.00
2022-12-03T07:34:57.352Z,417.00
2022-12-03T07:35:57.371Z,415.00
2022-12-03T07:36:57.340Z,415.00
2022-12-03T07:37:57.340Z,418.00
2022-12-03T07:38:57.311Z,413.00
2022-12-03T07:39:57.310Z,408.00
2022-12-03T07:40:57.290Z,409.00
2022-12-03T07:41:57.309Z,411.00
2022-12-03T07:42:57.258Z,405.00
2022-12-03T07:43:57.260Z,411.00
2022-12-03T07:44:57.240Z,414.00
2022-12-03T07:45:57.247Z,411.00
2022-12-03T07:46:57.290Z,411.00
2022-12-03T07:47:57.223Z,412.00
2022-12-03T07:48:57.193Z,410.00
2022-12-03T07:49:57.182Z,408.00
2022-12-03T07:50:57.161Z,409.00
2022-12-03T07:51:57.168Z,411.00
2022-12-03T07:52:57.133Z,414.00
2022-12-03T07:53:57.139Z,412.00
2022-12-03T07:54:57.109Z,418.00
2022-12-03T07:55:57.098Z,419.00
2022-12-03T07:57:01.475Z,417.00
2022-12-03T07:57:57.066Z,415.00
2022-12-03T07:58:57.063Z,412.00
2022-12-03T07:59:57.062Z,411.00
2022-12-03T08:00:57.076Z,413.00
2022-12-03T08:01:57.037Z,414.00
2022-12-03T08:02:57.007Z,419.00
2022-12-03T08:03:56.987Z,413.00
2022-12-03T08:04:57.084Z,410.00
2022-12-03T08:05:57.013Z,416.00
2022-12-03T08:06:56.956Z,424.00
2022-12-03T08:07:56.990Z,411.00
2022-12-03T08:08:56.928Z,412.00
2022-12-03T08:09:56.910Z,411.00
2022-12-03T08:10:56.899Z,412.00
2022-12-03T08:11:56.917Z,421.00
2022-12-03T08:12:56.877Z,412.00
2022-12-03T08:13:56.856Z,417.00
2022-12-03T08:14:56.874Z,414.00
2022-12-03T08:15:56.906Z,410.00
2022-12-03T08:16:56.897Z,419.00
2022-12-03T08:17:56.822Z,415.00
2022-12-03T08:18:56.795Z,420.00
2022-12-03T08:19:56.775Z,420.00
2022-12-03T08:20:56.776Z,419.00
2022-12-03T08:22:01.248Z,423.00
2022-12-03T08:22:56.745Z,418.00
2022-12-03T08:23:56.756Z,416.00
2022-12-03T08:24:56.740Z,415.00
2022-12-03T08:25:56.704Z,419.00
2022-12-03T08:26:56.684Z,416.00
2022-12-03T08:27:56.674Z,419.00
2022-12-03T08:28:56.665Z,414.00
2022-12-03T08:29:56.684Z,414.00
2022-12-03T08:30:56.634Z,409.00
2022-12-03T08:31:56.660Z,413.00
2022-12-03T08:32:56.604Z,410.00
2022-12-03T08:33:56.604Z,412.00
2022-12-03T08:34:56.593Z,412.00
2022-12-03T08:35:56.614Z,412.00
2022-12-03T08:36:56.566Z,419.00
2022-12-03T08:37:56.545Z,419.00
2022-12-03T08:38:56.523Z,417.00
2022-12-03T08:39:56.524Z,417.00
2022-12-03T08:40:56.508Z,419.00
2022-12-03T08:41:56.534Z,419.00
2022-12-03T08:42:56.477Z,418.00
2022-12-03T08:43:56.475Z,415.00
2022-12-03T08:44:56.833Z,415.00
2022-12-03T08:45:56.476Z,418.00
2022-12-03T08:46:56.423Z,412.00
2022-12-03T08:47:56.442Z,418.00
2022-12-03T08:48:56.400Z,416.00
2022-12-03T08:49:56.395Z,420.00
2022-12-03T08:50:56.371Z,436.00
2022-12-03T08:51:56.372Z,428.00
2022-12-03T08:52:56.343Z,425.00
2022-12-03T08:54:01.247Z,421.00
2022-12-03T08:54:57.573Z,422.00
2022-12-03T08:55:56.314Z,421.00
2022-12-03T08:56:56.292Z,417.00
2022-12-03T08:57:56.289Z,413.00
2022-12-03T08:58:56.278Z,420.00
2022-12-03T08:59:56.291Z,420.00
2022-12-03T09:00:56.310Z,424.00
2022-12-03T09:01:56.231Z,423.00
2022-12-03T09:02:56.213Z,422.00
2022-12-03T09:03:56.241Z,422.00
2022-12-03T09:04:56.457Z,417.00
2022-12-03T09:05:56.227Z,419.00
2022-12-03T09:06:56.161Z,419.00
2022-12-03T09:07:56.236Z,418.00
2022-12-03T09:08:56.148Z,416.00
2022-12-03T09:09:56.131Z,417.00
2022-12-03T09:10:56.111Z,418.00
2022-12-03T09:11:56.131Z,413.00
2022-12-03T09:12:56.080Z,416.00
2022-12-03T09:13:56.080Z,413.00
2022-12-03T09:14:56.438Z,416.00
2022-12-03T09:15:56.052Z,415.00
2022-12-03T09:16:56.412Z,417.00
2022-12-03T09:17:56.042Z,417.00
2022-12-03T09:18:55.999Z,421.00
2022-12-03T09:19:56.251Z,419.00
2022-12-03T09:20:55.980Z,416.00
2022-12-03T09:21:55.970Z,418.00
2022-12-03T09:22:55.949Z,419.00
2022-12-03T09:23:55.990Z,413.00
2022-12-03T09:24:56.180Z,418.00
2022-12-03T09:25:55.933Z,414.00
2022-12-03T09:26:55.906Z,415.00
2022-12-03T09:27:55.898Z,414.00
2022-12-03T09:28:55.879Z,418.00
2022-12-03T09:29:55.898Z,416.00
2022-12-03T09:30:55.849Z,414.00
2022-12-03T09:31:55.910Z,412.00
2022-12-03T09:32:55.817Z,416.00
2022-12-03T09:33:55.817Z,423.00
2022-12-03T09:34:56.200Z,418.00
2022-12-03T09:35:55.818Z,422.00
2022-12-03T09:36:55.767Z,419.00
2022-12-03T09:37:55.760Z,418.00
2022-12-03T09:38:55.738Z,417.00
2022-12-03T09:39:55.738Z,414.00
2022-12-03T09:40:55.718Z,410.00
2022-12-03T09:41:55.747Z,417.00
2022-12-03T09:42:55.699Z,412.00
2022-12-03T09:44:04.454Z,413.00
2022-12-03T09:44:56.925Z,408.00
2022-12-03T09:45:55.744Z,409.00
2022-12-03T09:46:55.639Z,407.00
2022-12-03T09:47:55.654Z,406.00
2022-12-03T09:48:55.609Z,414.00
2022-12-03T09:49:55.833Z,412.00
2022-12-03T09:50:55.592Z,415.00
2022-12-03T09:51:55.596Z,413.00
2022-12-03T09:52:55.568Z,415.00
2022-12-03T09:53:55.570Z,416.00
2022-12-03T09:54:55.914Z,408.00
2022-12-03T09:55:55.526Z,409.00
2022-12-03T09:56:55.506Z,410.00
2022-12-03T09:57:55.495Z,408.00
2022-12-03T09:58:55.487Z,410.00
2022-12-03T09:59:55.865Z,414.00
2022-12-03T10:00:55.475Z,412.00
2022-12-03T10:01:55.513Z,416.00
2022-12-03T10:02:55.425Z,420.00
2022-12-03T10:03:55.425Z,423.00
2022-12-03T10:04:55.732Z,415.00
2022-12-03T10:05:55.435Z,415.00
2022-12-03T10:06:55.376Z,412.00
2022-12-03T10:07:55.412Z,410.00
2022-12-03T10:08:55.345Z,415.00
2022-12-03T10:09:55.600Z,414.00
2022-12-03T10:10:55.331Z,412.00
2022-12-03T10:11:55.345Z,412.00
2022-12-03T10:12:55.301Z,413.00
2022-12-03T10:13:55.300Z,417.00
2022-12-03T10:14:55.553Z,410.00
2022-12-03T10:15:55.265Z,421.00
2022-12-03T10:16:55.340Z,421.00
2022-12-03T10:17:55.283Z,414.00
2022-12-03T10:18:55.223Z,418.00
2022-12-03T10:19:55.457Z,416.00
2022-12-03T10:20:55.194Z,416.00
2022-12-03T10:21:55.192Z,415.00
2022-12-03T10:22:55.165Z,413.00
2022-12-03T10:23:55.575Z,416.00
2022-12-03T10:24:55.340Z,417.00
2022-12-03T10:25:55.132Z,415.00
2022-12-03T10:26:55.114Z,414.00
2022-12-03T10:27:55.102Z,414.00
2022-12-03T10:28:55.082Z,412.00
2022-12-03T10:29:55.422Z,414.00
2022-12-03T10:30:55.157Z,413.00
2022-12-03T10:31:55.051Z,414.00
2022-12-03T10:32:55.032Z,416.00
2022-12-03T10:33:55.030Z,417.00
2022-12-03T10:34:55.250Z,419.00
2022-12-03T10:35:55.022Z,422.00
2022-12-03T10:36:54.982Z,420.00
2022-12-03T10:37:54.972Z,421.00
2022-12-03T10:38:54.951Z,420.00
2022-12-03T10:39:56.247Z,422.00
2022-12-03T10:40:54.923Z,419.00
2022-12-03T10:41:54.950Z,420.00
2022-12-03T10:42:54.901Z,426.00
2022-12-03T10:43:54.900Z,416.00
2022-12-03T10:44:55.120Z,421.00
2022-12-03T10:45:56.737Z,421.00
2022-12-03T10:46:55.956Z,417.00
2022-12-03T10:47:54.922Z,417.00
2022-12-03T10:48:54.821Z,415.00
2022-12-03T10:49:54.818Z,413.00
2022-12-03T10:50:54.800Z,404.00
2022-12-03T10:51:54.790Z,408.00
2022-12-03T10:52:54.800Z,417.00
2022-12-03T10:53:54.790Z,417.00
2022-12-03T10:54:55.122Z,413.00
2022-12-03T10:55:54.740Z,414.00
2022-12-03T10:56:54.720Z,414.00
2022-12-03T10:57:54.711Z,413.00
2022-12-03T10:58:54.734Z,422.00
2022-12-03T10:59:54.687Z,422.00
2022-12-03T11:00:54.668Z,420.00
2022-12-03T11:01:54.717Z,415.00
2022-12-03T11:02:56.951Z,418.00
2022-12-03T11:03:54.707Z,417.00
2022-12-03T11:04:54.866Z,416.00
2022-12-03T11:05:54.608Z,410.00
2022-12-03T11:06:54.588Z,406.00
2022-12-03T11:07:54.708Z,410.00
2022-12-03T11:08:58.426Z,411.00
2022-12-03T11:09:55.599Z,410.00
2022-12-03T11:10:54.549Z,409.00
2022-12-03T11:11:54.521Z,404.00
2022-12-03T11:12:54.517Z,415.00
2022-12-03T11:13:54.498Z,414.00
2022-12-03T11:14:54.732Z,411.00
2022-12-03T11:15:54.605Z,413.00
2022-12-03T11:16:54.477Z,413.00
2022-12-03T11:17:54.448Z,414.00
2022-12-03T11:18:54.438Z,415.00
2022-12-03T11:19:54.418Z,413.00
2022-12-03T11:20:54.417Z,418.00
2022-12-03T11:21:54.418Z,412.00
2022-12-03T11:22:54.392Z,414.00
2022-12-03T11:23:54.366Z,416.00
2022-12-03T11:24:54.595Z,415.00
2022-12-03T11:25:54.345Z,416.00
2022-12-03T11:26:54.337Z,423.00
2022-12-03T11:27:54.336Z,420.00
2022-12-03T11:28:54.326Z,418.00
2022-12-03T11:29:54.294Z,420.00
2022-12-03T11:30:54.324Z,420.00
2022-12-03T11:31:54.266Z,420.00
2022-12-03T11:32:54.255Z,422.00
2022-12-03T11:33:54.265Z,423.00
2022-12-03T11:34:54.580Z,423.00
2022-12-03T11:35:54.208Z,420.00
2022-12-03T11:37:01.424Z,421.00
2022-12-03T11:37:55.185Z,419.00
2022-12-03T11:38:54.221Z,418.00
2022-12-03T11:39:54.611Z,425.00
2022-12-03T11:40:54.147Z,421.00
2022-12-03T11:41:54.136Z,421.00
2022-12-03T11:42:54.125Z,423.00
2022-12-03T11:43:54.105Z,418.00
2022-12-03T11:44:54.096Z,417.00
2022-12-03T11:45:57.266Z,415.00
2022-12-03T11:46:55.084Z,415.00
2022-12-03T11:47:54.061Z,414.00
2022-12-03T11:48:54.053Z,417.00
2022-12-03T11:49:54.297Z,415.00
2022-12-03T11:50:54.042Z,414.00
2022-12-03T11:51:54.057Z,412.00
2022-12-03T11:52:53.985Z,416.00
2022-12-03T11:53:53.985Z,416.00
2022-12-03T11:54:53.964Z,416.00
2022-12-03T11:55:53.954Z,415.00
2022-12-03T11:56:53.933Z,412.00
2022-12-03T11:57:53.943Z,411.00
2022-12-03T11:58:53.913Z,413.00
2022-12-03T11:59:54.116Z,417.00
2022-12-03T12:00:53.885Z,415.00
2022-12-03T12:01:53.873Z,415.00
2022-12-03T12:02:53.921Z,418.00
2022-12-03T12:03:54.056Z,415.00
2022-12-03T12:04:53.824Z,419.00
2022-12-03T12:05:53.823Z,422.00
2022-12-03T12:06:53.805Z,422.00
2022-12-03T12:07:53.877Z,422.00
2022-12-03T12:08:53.772Z,421.00
2022-12-03T12:09:54.272Z,414.00
2022-12-03T12:10:53.753Z,416.00
2022-12-03T12:11:53.742Z,422.00
2022-12-03T12:12:55.209Z,419.00
2022-12-03T12:13:53.721Z,415.00
2022-12-03T12:14:53.704Z,416.00
2022-12-03T12:15:53.809Z,413.00
2022-12-03T12:16:53.681Z,413.00
2022-12-03T12:17:53.661Z,415.00
2022-12-03T12:18:55.326Z,416.00
2022-12-03T12:19:54.618Z,414.00
2022-12-03T12:20:53.620Z,408.00
2022-12-03T12:21:53.650Z,409.00
2022-12-03T12:22:53.591Z,406.00
2022-12-03T12:23:53.613Z,412.00
2022-12-03T12:24:53.577Z,414.00
2022-12-03T12:25:54.476Z,404.00
2022-12-03T12:26:53.549Z,410.00
2022-12-03T12:27:53.571Z,412.00